createdAt,value
2019-02-25T00:01:05.677Z,0.70
2019-02-25T00:03:56.486Z,0.65
2019-02-25T00:06:29.698Z,0.65
2019-02-25T00:09:01.704Z,0.62
2019-02-25T00:11:30.458Z,0.56
2019-02-25T00:14:01.353Z,0.55
2019-02-25T00:16:32.255Z,0.49
2019-02-25T00:19:07.814Z,0.45
2019-02-25T00:21:39.609Z,0.32
2019-02-25T00:24:11.390Z,0.21
2019-02-25T00:26:40.627Z,0.12
2019-02-25T00:29:12.887Z,0.04
2019-02-25T00:31:47.842Z,0.18
2019-02-25T00:34:20.041Z,0.24
2019-02-25T00:36:52.275Z,0.30
2019-02-25T00:39:28.953Z,0.21
2019-02-25T00:41:58.640Z,0.18
2019-02-25T00:44:30.660Z,0.19
2019-02-25T00:47:04.621Z,0.20
2019-02-25T00:49:38.036Z,0.23
2019-02-25T00:52:07.999Z,0.16
2019-02-25T00:54:42.813Z,0.12
2019-02-25T00:57:15.061Z,0.12
2019-02-25T00:59:44.166Z,0.11
2019-02-25T01:02:12.904Z,0.08
2019-02-25T01:04:43.902Z,0.13
2019-02-25T01:07:18.934Z,0.12
2019-02-25T01:09:49.687Z,0.18
2019-02-25T01:12:19.034Z,0.18
2019-02-25T01:14:48.128Z,0.09
2019-02-25T01:17:17.727Z,0.05
2019-02-25T01:19:51.934Z,0.01
2019-02-25T01:22:23.005Z,0.01
2019-02-25T01:24:53.071Z,-0.09
2019-02-25T01:27:22.315Z,-0.08
2019-02-25T01:29:51.761Z,-0.11
2019-02-25T01:32:23.842Z,-0.10
2019-02-25T01:34:56.179Z,-0.11
2019-02-25T01:37:32.648Z,-0.19
2019-02-25T01:40:03.230Z,-0.26
2019-02-25T01:42:37.302Z,-0.28
2019-02-25T01:45:08.788Z,-0.23
2019-02-25T01:47:40.925Z,-0.24
2019-02-25T01:50:14.877Z,-0.28
2019-02-25T01:52:47.183Z,-0.18
2019-02-25T01:55:16.092Z,-0.14
2019-02-25T01:57:46.252Z,-0.14
2019-02-25T02:00:17.826Z,-0.13
2019-02-25T02:02:46.754Z,-0.21
2019-02-25T02:05:15.834Z,-0.27
2019-02-25T02:07:47.165Z,-0.36
2019-02-25T02:10:17.419Z,-0.44
2019-02-25T02:12:49.688Z,-0.52
2019-02-25T02:15:20.386Z,-0.55
2019-02-25T02:17:50.646Z,-0.56
2019-02-25T02:20:21.632Z,-0.52
2019-02-25T02:22:50.749Z,-0.57
2019-02-25T02:25:24.598Z,-0.58
2019-02-25T02:27:57.853Z,-0.61
2019-02-25T02:30:32.925Z,-0.58
2019-02-25T02:33:01.642Z,-0.45
2019-02-25T02:35:35.530Z,-0.38
2019-02-25T02:38:06.448Z,-0.36
2019-02-25T02:40:40.452Z,-0.32
2019-02-25T02:43:13.580Z,-0.20
2019-02-25T02:45:55.427Z,-0.21
2019-02-25T02:48:40.470Z,-0.22
2019-02-25T02:51:15.412Z,-0.23
2019-02-25T02:53:50.455Z,-0.28
2019-02-25T02:56:21.195Z,-0.38
2019-02-25T02:58:56.451Z,-0.45
2019-02-25T03:01:29.664Z,-0.49
2019-02-25T03:04:02.693Z,-0.54
2019-02-25T03:06:37.649Z,-0.63
2019-02-25T03:09:10.559Z,-0.64
2019-02-25T03:11:41.621Z,-0.57
2019-02-25T03:14:14.094Z,-0.58
2019-02-25T03:16:47.558Z,-0.66
2019-02-25T03:19:21.742Z,-0.79
2019-02-25T03:21:53.656Z,-0.80
2019-02-25T03:24:25.411Z,-0.73
2019-02-25T03:26:57.914Z,-0.61
2019-02-25T03:29:35.155Z,-0.62
2019-02-25T03:32:08.819Z,-0.68
2019-02-25T03:34:39.348Z,-0.63
2019-02-25T03:37:29.053Z,-0.71
2019-02-25T03:40:01.631Z,-0.72
2019-02-25T03:42:32.833Z,-0.71
2019-02-25T03:45:06.091Z,-0.71
2019-02-25T03:47:35.656Z,-0.74
2019-02-25T03:50:10.795Z,-0.80
2019-02-25T03:52:42.097Z,-0.81
2019-02-25T03:55:18.183Z,-0.75
2019-02-25T03:57:50.358Z,-0.78
2019-02-25T04:00:22.309Z,-0.79
2019-02-25T04:02:56.012Z,-0.77
2019-02-25T04:05:30.194Z,-0.79
2019-02-25T04:08:02.749Z,-0.83
2019-02-25T04:10:35.290Z,-0.85
2019-02-25T04:13:08.069Z,-0.83
2019-02-25T04:15:42.599Z,-0.81
2019-02-25T04:18:14.724Z,-0.85
2019-02-25T04:20:49.173Z,-0.86
2019-02-25T04:23:20.223Z,-0.85
2019-02-25T04:25:54.737Z,-0.84
2019-02-25T04:28:27.328Z,-0.86
2019-02-25T04:30:57.968Z,-0.95
2019-02-25T04:33:27.883Z,-0.98
2019-02-25T04:35:57.168Z,-0.96
2019-02-25T04:38:33.612Z,-0.98
2019-02-25T04:41:02.710Z,-1.02
2019-02-25T04:43:34.801Z,-1.12
2019-02-25T04:46:11.663Z,-1.04
2019-02-25T04:48:43.870Z,-0.94
2019-02-25T04:51:13.269Z,-0.91
2019-02-25T04:53:47.826Z,-1.03
2019-02-25T04:56:19.940Z,-1.01
2019-02-25T04:58:54.079Z,-0.94
2019-02-25T05:01:27.801Z,-0.87
2019-02-25T05:04:06.017Z,-0.81
2019-02-25T05:06:40.123Z,-0.81
2019-02-25T05:09:12.029Z,-0.78
2019-02-25T05:11:42.182Z,-0.76
2019-02-25T05:14:16.958Z,-0.90
2019-02-25T05:16:47.067Z,-0.99
2019-02-25T05:19:17.698Z,-1.04
2019-02-25T05:21:47.025Z,-0.87
2019-02-25T05:24:18.021Z,-0.74
2019-02-25T05:26:49.281Z,-0.71
2019-02-25T05:29:18.627Z,-0.80
2019-02-25T05:31:49.546Z,-0.90
2019-02-25T05:34:19.084Z,-0.90
2019-02-25T05:36:52.540Z,-1.03
2019-02-25T05:39:20.753Z,-1.13
2019-02-25T05:41:51.980Z,-1.20
2019-02-25T05:44:25.489Z,-1.22
2019-02-25T05:46:59.181Z,-1.25
2019-02-25T05:49:29.665Z,-1.25
2019-02-25T05:51:59.968Z,-1.17
2019-02-25T05:54:31.798Z,-1.08
2019-02-25T05:57:02.796Z,-1.06
2019-02-25T05:59:34.581Z,-1.04
2019-02-25T06:02:05.434Z,-1.00
2019-02-25T06:04:37.030Z,-1.04
2019-02-25T06:07:10.861Z,-1.08
2019-02-25T06:09:42.879Z,-1.13
2019-02-25T06:12:13.630Z,-1.17
2019-02-25T06:14:46.346Z,-1.18
2019-02-25T06:17:17.147Z,-1.17
2019-02-25T06:19:51.713Z,-1.18
2019-02-25T06:22:23.554Z,-1.20
2019-02-25T06:24:57.164Z,-1.22
2019-02-25T06:27:31.075Z,-1.26
2019-02-25T06:30:01.160Z,-1.22
2019-02-25T06:32:33.342Z,-1.13
2019-02-25T06:35:05.563Z,-1.12
2019-02-25T06:37:37.569Z,-1.05
2019-02-25T06:40:08.856Z,-0.95
2019-02-25T06:42:39.449Z,-0.89
2019-02-25T06:45:14.876Z,-0.81
2019-02-25T06:47:46.039Z,-0.75
2019-02-25T06:50:18.016Z,-0.66
2019-02-25T06:52:51.544Z,-0.67
2019-02-25T06:55:22.220Z,-0.55
2019-02-25T06:57:54.112Z,-0.37
2019-02-25T07:00:25.512Z,-0.28
2019-02-25T07:03:00.237Z,-0.24
2019-02-25T07:05:41.846Z,-0.15
2019-02-25T07:08:32.971Z,-0.07
2019-02-25T07:11:25.791Z,0.04
2019-02-25T07:14:13.870Z,0.16
2019-02-25T07:17:00.529Z,0.24
2019-02-25T07:19:38.399Z,0.32
2019-02-25T07:22:16.436Z,0.36
2019-02-25T07:25:07.322Z,0.38
2019-02-25T07:28:11.417Z,0.52
2019-02-25T07:31:03.899Z,0.60
2019-02-25T07:33:53.366Z,0.83
2019-02-25T07:36:39.811Z,0.82
2019-02-25T07:39:35.551Z,0.86
2019-02-25T07:42:11.774Z,0.93
2019-02-25T07:45:06.549Z,1.03
2019-02-25T07:47:48.746Z,1.12
2019-02-25T07:50:28.185Z,1.28
2019-02-25T07:53:17.682Z,1.37
2019-02-25T07:56:05.963Z,1.58
2019-02-25T07:59:07.381Z,1.92
2019-02-25T08:02:04.052Z,2.23
2019-02-25T08:04:44.990Z,2.54
2019-02-25T08:07:45.107Z,2.69
2019-02-25T08:10:37.385Z,2.84
2019-02-25T08:13:26.944Z,2.96
2019-02-25T08:16:34.601Z,3.09
2019-02-25T08:19:15.667Z,3.23
2019-02-25T08:22:04.028Z,3.39
2019-02-25T08:25:03.628Z,3.45
2019-02-25T08:28:01.622Z,3.43
2019-02-25T08:30:51.875Z,3.52
2019-02-25T08:33:42.780Z,3.55
2019-02-25T08:37:06.604Z,3.65
2019-02-25T08:39:59.330Z,3.68
2019-02-25T08:42:35.085Z,3.79
2019-02-25T08:45:19.062Z,3.84
2019-02-25T08:47:59.199Z,3.94
2019-02-25T08:50:33.304Z,3.98
2019-02-25T08:53:03.315Z,4.10
2019-02-25T08:55:32.302Z,4.25
2019-02-25T08:58:00.869Z,4.40
2019-02-25T09:00:29.439Z,4.58
2019-02-25T09:02:58.341Z,4.67
2019-02-25T09:05:27.505Z,4.81
2019-02-25T09:07:57.684Z,4.93
2019-02-25T09:10:26.665Z,5.00
2019-02-25T09:12:57.392Z,5.02
2019-02-25T09:15:32.589Z,5.13
2019-02-25T09:18:02.373Z,5.32
2019-02-25T09:20:31.480Z,5.53
2019-02-25T09:23:06.022Z,5.66
2019-02-25T09:25:37.245Z,5.72
2019-02-25T09:28:07.376Z,5.82
2019-02-25T09:30:36.585Z,5.92
2019-02-25T09:33:11.131Z,6.06
2019-02-25T09:35:40.279Z,6.17
2019-02-25T09:38:14.568Z,6.25
2019-02-25T09:40:48.498Z,6.39
2019-02-25T09:43:18.623Z,6.55
2019-02-25T09:45:47.871Z,6.68
2019-02-25T09:48:18.350Z,6.95
2019-02-25T09:50:47.241Z,6.95
2019-02-25T09:53:17.807Z,7.03
2019-02-25T09:55:49.771Z,7.28
2019-02-25T09:58:18.629Z,7.28
2019-02-25T10:00:52.229Z,7.46
2019-02-25T10:03:21.131Z,7.49
2019-02-25T10:05:52.483Z,7.65
2019-02-25T10:08:22.902Z,7.83
2019-02-25T10:10:53.666Z,7.88
2019-02-25T10:13:25.763Z,8.11
2019-02-25T10:15:57.391Z,8.11
2019-02-25T10:18:26.539Z,8.27
2019-02-25T10:20:58.286Z,8.44
2019-02-25T10:23:30.669Z,8.54
2019-02-25T10:26:05.679Z,8.64
2019-02-25T10:28:34.775Z,8.82
2019-02-25T10:31:08.426Z,8.88
2019-02-25T10:33:36.878Z,8.98
2019-02-25T10:36:08.663Z,9.24
2019-02-25T10:38:37.715Z,9.38
2019-02-25T10:41:06.662Z,9.50
2019-02-25T10:43:41.038Z,9.62
2019-02-25T10:46:13.419Z,9.80
2019-02-25T10:48:44.037Z,9.94
2019-02-25T10:51:17.764Z,9.95
2019-02-25T10:53:47.795Z,10.11
2019-02-25T10:56:23.842Z,10.22
2019-02-25T10:58:59.642Z,10.29
2019-02-25T11:01:29.795Z,10.31
2019-02-25T11:03:58.328Z,10.32
2019-02-25T11:06:29.087Z,10.38
2019-02-25T11:09:06.888Z,10.53
2019-02-25T11:11:37.313Z,10.58
2019-02-25T11:14:09.210Z,10.76
2019-02-25T11:16:41.925Z,10.97
2019-02-25T11:19:12.428Z,11.10
2019-02-25T11:21:44.377Z,11.12
2019-02-25T11:24:16.691Z,11.25
2019-02-25T11:26:49.038Z,11.36
2019-02-25T11:29:21.566Z,11.48
2019-02-25T11:31:53.133Z,11.71
2019-02-25T11:34:22.362Z,11.78
2019-02-25T11:36:55.505Z,11.90
2019-02-25T11:39:27.572Z,12.09
2019-02-25T11:41:57.566Z,12.19
2019-02-25T11:44:31.152Z,12.50
2019-02-25T11:47:04.677Z,12.56
2019-02-25T11:49:37.247Z,12.74
2019-02-25T11:52:07.877Z,12.81
2019-02-25T11:54:40.139Z,12.91
2019-02-25T11:57:10.801Z,12.99
2019-02-25T11:59:42.846Z,13.20
2019-02-25T12:02:11.587Z,13.35
2019-02-25T12:04:40.730Z,13.52
2019-02-25T12:07:13.236Z,13.55
2019-02-25T12:09:42.264Z,13.60
2019-02-25T12:12:12.757Z,13.72
2019-02-25T12:14:47.765Z,13.82
2019-02-25T12:17:18.733Z,14.04
2019-02-25T12:19:52.233Z,14.28
2019-02-25T12:22:24.596Z,14.26
2019-02-25T12:24:54.902Z,14.35
2019-02-25T12:27:24.611Z,14.49
2019-02-25T12:29:57.425Z,14.66
2019-02-25T12:32:26.337Z,14.78
2019-02-25T12:34:54.869Z,14.80
2019-02-25T12:37:25.598Z,14.92
2019-02-25T12:39:56.322Z,14.87
2019-02-25T12:42:27.400Z,14.89
2019-02-25T12:44:58.027Z,14.87
2019-02-25T12:47:27.609Z,14.88
2019-02-25T12:50:00.813Z,14.97
2019-02-25T12:52:31.051Z,15.09
2019-02-25T12:55:01.552Z,15.23
2019-02-25T12:57:30.270Z,15.29
2019-02-25T13:00:04.229Z,15.42
2019-02-25T13:02:34.793Z,15.51
2019-02-25T13:05:03.532Z,15.59
2019-02-25T13:07:36.955Z,15.74
2019-02-25T13:10:08.537Z,15.84
2019-02-25T13:12:39.046Z,15.98
2019-02-25T13:15:13.278Z,15.97
2019-02-25T13:17:43.808Z,15.92
2019-02-25T13:20:12.357Z,15.81
2019-02-25T13:22:43.283Z,15.81
2019-02-25T13:25:14.607Z,15.85
2019-02-25T13:27:45.399Z,15.83
2019-02-25T13:30:15.113Z,15.69
2019-02-25T13:32:45.462Z,15.73
2019-02-25T13:35:14.969Z,15.79
2019-02-25T13:37:48.498Z,15.81
2019-02-25T13:40:23.686Z,15.83
2019-02-25T13:42:54.133Z,15.92
2019-02-25T13:45:24.862Z,15.85
2019-02-25T13:47:57.028Z,15.91
2019-02-25T13:50:29.133Z,15.91
2019-02-25T13:53:03.841Z,15.99
2019-02-25T13:55:36.804Z,15.97
2019-02-25T13:58:14.601Z,15.94
2019-02-25T14:00:51.469Z,15.94
2019-02-25T14:03:21.656Z,15.94
2019-02-25T14:05:53.910Z,15.96
2019-02-25T14:08:24.009Z,15.97
2019-02-25T14:10:54.435Z,16.05
2019-02-25T14:13:23.155Z,16.05
2019-02-25T14:15:55.012Z,16.00
2019-02-25T14:18:26.633Z,16.08
2019-02-25T14:20:55.544Z,16.12
2019-02-25T14:23:30.782Z,16.22
2019-02-25T14:26:03.711Z,16.17
2019-02-25T14:28:34.719Z,16.18
2019-02-25T14:31:10.139Z,16.14
2019-02-25T14:33:40.036Z,16.11
2019-02-25T14:36:10.660Z,16.09
2019-02-25T14:38:41.583Z,16.12
2019-02-25T14:41:16.054Z,16.17
2019-02-25T14:43:49.188Z,16.14
2019-02-25T14:46:21.836Z,16.14
2019-02-25T14:48:48.879Z,16.14
2019-02-25T14:51:17.631Z,16.03
2019-02-25T14:53:52.735Z,15.95
2019-02-25T14:56:28.175Z,16.04
2019-02-25T14:59:00.607Z,15.89
2019-02-25T15:01:29.828Z,15.97
2019-02-25T15:04:04.315Z,15.86
2019-02-25T15:06:36.777Z,15.87
2019-02-25T15:09:09.822Z,15.88
2019-02-25T15:11:38.996Z,15.80
2019-02-25T15:14:12.853Z,15.74
2019-02-25T15:16:42.119Z,15.71
2019-02-25T15:19:13.339Z,15.66
2019-02-25T15:21:43.331Z,15.56
2019-02-25T15:24:16.563Z,15.58
2019-02-25T15:26:48.879Z,15.52
2019-02-25T15:29:22.335Z,15.43
2019-02-25T15:31:57.078Z,15.36
2019-02-25T15:34:28.524Z,15.30
2019-02-25T15:36:58.604Z,15.28
2019-02-25T15:39:28.137Z,15.24
2019-02-25T15:42:02.085Z,15.21
2019-02-25T15:44:30.658Z,15.20
2019-02-25T15:47:02.517Z,15.14
2019-02-25T15:49:34.683Z,15.07
2019-02-25T15:52:05.252Z,15.09
2019-02-25T15:54:39.376Z,15.03
2019-02-25T15:57:09.022Z,14.99
2019-02-25T15:59:45.058Z,14.90
2019-02-25T16:02:18.926Z,14.83
2019-02-25T16:04:56.418Z,14.64
2019-02-25T16:07:25.961Z,14.51
2019-02-25T16:10:03.319Z,14.38
2019-02-25T16:12:31.440Z,14.16
2019-02-25T16:15:01.411Z,13.96
2019-02-25T16:17:35.158Z,13.77
2019-02-25T16:20:07.541Z,13.53
2019-02-25T16:22:40.807Z,13.21
2019-02-25T16:25:14.402Z,12.98
2019-02-25T16:27:49.398Z,12.84
2019-02-25T16:30:19.101Z,12.76
2019-02-25T16:32:48.791Z,12.45
2019-02-25T16:35:20.942Z,12.20
2019-02-25T16:37:50.826Z,11.95
2019-02-25T16:40:26.417Z,11.76
2019-02-25T16:42:54.985Z,11.59
2019-02-25T16:45:34.843Z,11.35
2019-02-25T16:48:04.838Z,11.15
2019-02-25T16:50:35.293Z,11.06
2019-02-25T16:53:10.271Z,10.81
2019-02-25T16:55:39.931Z,10.73
2019-02-25T16:58:13.225Z,10.52
2019-02-25T17:00:41.729Z,10.49
2019-02-25T17:03:13.770Z,10.26
2019-02-25T17:05:45.634Z,10.07
2019-02-25T17:08:19.046Z,9.99
2019-02-25T17:10:53.933Z,9.96
2019-02-25T17:13:23.491Z,9.89
2019-02-25T17:15:53.081Z,9.78
2019-02-25T17:18:23.831Z,9.73
2019-02-25T17:20:55.880Z,9.62
2019-02-25T17:23:30.207Z,9.57
2019-02-25T17:26:02.016Z,9.46
2019-02-25T17:28:33.506Z,9.34
2019-02-25T17:31:06.519Z,9.15
2019-02-25T17:33:42.796Z,8.97
2019-02-25T17:36:16.597Z,8.65
2019-02-25T17:38:50.147Z,8.31
2019-02-25T17:41:20.767Z,8.16
2019-02-25T17:43:50.036Z,8.11
2019-02-25T17:46:19.098Z,7.90
2019-02-25T17:48:48.138Z,7.80
2019-02-25T17:51:20.866Z,7.80
2019-02-25T17:53:54.799Z,7.85
2019-02-25T17:56:26.994Z,7.95
2019-02-25T17:58:55.772Z,8.11
2019-02-25T18:01:28.013Z,8.04
2019-02-25T18:03:56.735Z,7.95
2019-02-25T18:06:31.952Z,7.71
2019-02-25T18:09:04.577Z,7.50
2019-02-25T18:11:33.449Z,7.30
2019-02-25T18:14:05.274Z,7.15
2019-02-25T18:16:37.127Z,7.06
2019-02-25T18:19:09.200Z,7.03
2019-02-25T18:21:43.850Z,6.85
2019-02-25T18:24:13.858Z,6.83
2019-02-25T18:26:52.832Z,6.81
2019-02-25T18:29:25.177Z,6.68
2019-02-25T18:31:59.236Z,6.56
2019-02-25T18:34:32.197Z,6.37
2019-02-25T18:37:03.425Z,6.25
2019-02-25T18:39:35.697Z,6.16
2019-02-25T18:42:11.617Z,6.15
2019-02-25T18:44:39.975Z,6.11
2019-02-25T18:47:16.527Z,5.97
2019-02-25T18:49:47.786Z,5.95
2019-02-25T18:52:19.591Z,5.90
2019-02-25T18:54:51.561Z,5.78
2019-02-25T18:57:21.036Z,5.70
2019-02-25T18:59:54.802Z,5.66
2019-02-25T19:02:26.448Z,5.68
2019-02-25T19:05:02.139Z,5.75
2019-02-25T19:07:37.714Z,5.71
2019-02-25T19:10:12.553Z,5.71
2019-02-25T19:12:43.901Z,5.62
2019-02-25T19:15:15.474Z,5.43
2019-02-25T19:17:45.843Z,5.24
2019-02-25T19:20:17.643Z,5.13
2019-02-25T19:22:46.518Z,4.99
2019-02-25T19:25:20.892Z,4.92
2019-02-25T19:27:52.697Z,4.84
2019-02-25T19:30:22.298Z,4.76
2019-02-25T19:32:53.447Z,4.73
2019-02-25T19:35:25.779Z,4.60
2019-02-25T19:37:56.090Z,4.50
2019-02-25T19:40:25.043Z,4.35
2019-02-25T19:43:00.523Z,4.19
2019-02-25T19:45:29.890Z,4.18
2019-02-25T19:48:02.469Z,4.16
2019-02-25T19:50:32.362Z,4.07
2019-02-25T19:53:04.570Z,4.03
2019-02-25T19:55:33.968Z,4.06
2019-02-25T19:58:04.223Z,3.97
2019-02-25T20:00:35.351Z,3.92
2019-02-25T20:03:07.593Z,3.95
2019-02-25T20:05:41.658Z,3.84
2019-02-25T20:08:11.436Z,3.75
2019-02-25T20:10:42.398Z,3.74
2019-02-25T20:13:14.380Z,3.65
2019-02-25T20:15:44.403Z,3.59
2019-02-25T20:18:13.928Z,3.54
2019-02-25T20:20:45.773Z,3.51
2019-02-25T20:23:16.371Z,3.46
2019-02-25T20:25:47.068Z,3.36
2019-02-25T20:28:18.665Z,3.32
2019-02-25T20:30:48.964Z,3.29
2019-02-25T20:33:18.393Z,3.31
2019-02-25T20:35:51.167Z,3.37
2019-02-25T20:38:22.523Z,3.31
2019-02-25T20:40:51.579Z,3.34
2019-02-25T20:43:23.504Z,3.24
2019-02-25T20:45:54.643Z,3.19
2019-02-25T20:48:29.278Z,3.29
2019-02-25T20:50:59.825Z,3.17
2019-02-25T20:53:41.142Z,3.11
2019-02-25T20:56:09.868Z,2.98
2019-02-25T20:58:40.202Z,2.99
2019-02-25T21:01:16.101Z,3.05
2019-02-25T21:03:48.587Z,3.15
2019-02-25T21:06:22.830Z,3.31
2019-02-25T21:08:57.537Z,3.39
2019-02-25T21:11:26.612Z,3.41
2019-02-25T21:13:56.835Z,3.27
2019-02-25T21:16:30.575Z,3.19
2019-02-25T21:19:03.154Z,3.11
2019-02-25T21:21:34.647Z,3.09
2019-02-25T21:24:08.803Z,2.92
2019-02-25T21:26:40.977Z,2.83
2019-02-25T21:29:10.319Z,2.84
2019-02-25T21:31:47.259Z,2.81
2019-02-25T21:34:20.535Z,2.74
2019-02-25T21:36:47.584Z,2.75
2019-02-25T21:39:19.122Z,2.78
2019-02-25T21:41:47.780Z,2.78
2019-02-25T21:44:23.566Z,2.76
2019-02-25T21:46:56.254Z,2.69
2019-02-25T21:49:27.160Z,2.61
2019-02-25T21:51:57.005Z,2.50
2019-02-25T21:54:27.846Z,2.41
2019-02-25T21:56:59.074Z,2.32
2019-02-25T21:59:32.237Z,2.26
2019-02-25T22:02:03.737Z,2.30
2019-02-25T22:04:38.488Z,2.29
2019-02-25T22:07:10.470Z,2.22
2019-02-25T22:09:41.880Z,2.08
2019-02-25T22:12:11.301Z,2.07
2019-02-25T22:14:41.196Z,2.09
2019-02-25T22:17:15.130Z,2.03
2019-02-25T22:19:45.816Z,2.09
2019-02-25T22:22:24.128Z,2.22
2019-02-25T22:24:50.486Z,2.24
2019-02-25T22:27:21.206Z,2.28
2019-02-25T22:29:53.042Z,2.28
2019-02-25T22:32:21.744Z,2.28
2019-02-25T22:34:56.065Z,2.40
2019-02-25T22:37:29.174Z,2.34
2019-02-25T22:39:59.501Z,2.33
2019-02-25T22:42:33.413Z,2.22
2019-02-25T22:45:02.196Z,2.06
2019-02-25T22:47:30.742Z,1.96
2019-02-25T22:50:04.305Z,1.91
2019-02-25T22:52:37.290Z,1.79
2019-02-25T22:55:08.184Z,1.67
2019-02-25T22:57:41.058Z,1.65
2019-02-25T23:00:22.926Z,1.63
2019-02-25T23:02:56.825Z,1.68
2019-02-25T23:05:26.556Z,1.68
2019-02-25T23:07:55.518Z,1.61
2019-02-25T23:10:27.899Z,1.47
2019-02-25T23:12:58.118Z,1.37
2019-02-25T23:15:30.613Z,1.24
2019-02-25T23:18:05.275Z,1.17
2019-02-25T23:20:31.704Z,1.11
2019-02-25T23:23:04.855Z,1.15
2019-02-25T23:25:32.419Z,1.26
2019-02-25T23:28:02.305Z,1.24
2019-02-25T23:30:30.946Z,1.21
2019-02-25T23:33:02.070Z,1.23
2019-02-25T23:35:30.641Z,1.19
2019-02-25T23:38:03.817Z,1.25
2019-02-25T23:40:36.010Z,1.20
2019-02-25T23:43:07.478Z,1.08
2019-02-25T23:45:37.917Z,0.97
2019-02-25T23:48:08.955Z,0.90
2019-02-25T23:50:36.972Z,0.86
2019-02-25T23:53:12.289Z,0.82
2019-02-25T23:55:45.156Z,0.78
2019-02-25T23:58:19.613Z,0.73
